Terminal Aerodrome Forecast
Issued by NWS New Orleans/Baton Rouge, LA

Home | Current Version | Previous Version | Text Only | Print | Product List | Glossary On
Versions: 1 2 3 4 5 6 7 8 9 10 11 12 13 14 15 16 17 18 19 20 21 22 23 24 25 26 27 28 29 30 31 32 33 34 35
258
FTUS44 KLIX 192324
TAFNEW
TAF
KNEW 192324Z 2000/2024 10012KT P6SM SKC
     FM200300 12007KT P6SM SCT040
     FM200600 12007KT P6SM BKN025
     FM200900 11007KT P6SM BKN003
     FM201600 12008KT P6SM SCT010 BKN035=

USA.gov is the U.S. government's official web portal to all federal, state and local government web resources and services.